Terminal Aerodrome Forecast
Issued by NWS

Home | Current Version | Previous Version | Text Only | Print | Product List | Glossary On
Versions: 1 2 3 4 5 6 7 8 9 10 11 12 13 14 15 16
000
FTUS41 KPHI 261123
TAFPNE
TAF
KPNE 261123Z 2612/2712 30014G20KT P6SM SCT035 BKN250
     FM262200 30006KT P6SM SCT250
     FM270600 VRB03KT P6SM BKN150
     FM271100 09005KT P6SM OVC080=

USA.gov is the U.S. government's official web portal to all federal, state and local government web resources and services.